sensor_id;sensor_type;location;lat;lon;timestamp;P1;durP1;ratioP1;P2;durP2;ratioP2
8327;SDS011;4201;48.754;8.864;2024-03-02T00:01:37;24.63;;;14.07;;
8327;SDS011;4201;48.754;8.864;2024-03-02T00:04:03;16.90;;;13.23;;
8327;SDS011;4201;48.754;8.864;2024-03-02T00:06:31;17.90;;;12.27;;
8327;SDS011;4201;48.754;8.864;2024-03-02T00:08:58;23.93;;;13.87;;
8327;SDS011;4201;48.754;8.864;2024-03-02T00:11:26;25.80;;;13.70;;
8327;SDS011;4201;48.754;8.864;2024-03-02T00:13:52;16.70;;;11.40;;
8327;SDS011;4201;48.754;8.864;2024-03-02T00:16:19;17.63;;;11.93;;
8327;SDS011;4201;48.754;8.864;2024-03-02T00:18:45;15.00;;;11.90;;
8327;SDS011;4201;48.754;8.864;2024-03-02T00:21:11;27.70;;;12.67;;
8327;SDS011;4201;48.754;8.864;2024-03-02T00:23:38;18.20;;;12.50;;
8327;SDS011;4201;48.754;8.864;2024-03-02T00:26:04;18.23;;;12.43;;
8327;SDS011;4201;48.754;8.864;2024-03-02T00:28:33;20.20;;;12.37;;
8327;SDS011;4201;48.754;8.864;2024-03-02T00:31:01;18.50;;;13.17;;
8327;SDS011;4201;48.754;8.864;2024-03-02T00:33:29;20.13;;;14.17;;
8327;SDS011;4201;48.754;8.864;2024-03-02T00:35:56;18.50;;;12.00;;
8327;SDS011;4201;48.754;8.864;2024-03-02T00:38:22;18.10;;;13.10;;
8327;SDS011;4201;48.754;8.864;2024-03-02T00:40:49;16.63;;;10.97;;
8327;SDS011;4201;48.754;8.864;2024-03-02T00:43:26;18.43;;;12.90;;
8327;SDS011;4201;48.754;8.864;2024-03-02T00:45:59;17.93;;;12.00;;
8327;SDS011;4201;48.754;8.864;2024-03-02T00:48:26;17.67;;;12.67;;
8327;SDS011;4201;48.754;8.864;2024-03-02T00:50:52;18.03;;;13.10;;
8327;SDS011;4201;48.754;8.864;2024-03-02T00:53:19;17.60;;;11.40;;
8327;SDS011;4201;48.754;8.864;2024-03-02T00:55:49;17.87;;;11.37;;
8327;SDS011;4201;48.754;8.864;2024-03-02T00:58:15;16.77;;;12.17;;
8327;SDS011;4201;48.754;8.864;2024-03-02T01:00:42;18.50;;;13.47;;
8327;SDS011;4201;48.754;8.864;2024-03-02T01:03:09;17.83;;;12.77;;
8327;SDS011;4201;48.754;8.864;2024-03-02T01:05:36;17.60;;;12.80;;
8327;SDS011;4201;48.754;8.864;2024-03-02T01:08:03;20.20;;;12.87;;
8327;SDS011;4201;48.754;8.864;2024-03-02T01:10:29;21.90;;;13.10;;
8327;SDS011;4201;48.754;8.864;2024-03-02T01:12:55;18.70;;;12.97;;
8327;SDS011;4201;48.754;8.864;2024-03-02T01:15:21;17.97;;;12.13;;
8327;SDS011;4201;48.754;8.864;2024-03-02T01:17:48;20.13;;;13.03;;
8327;SDS011;4201;48.754;8.864;2024-03-02T01:20:15;18.73;;;12.30;;
8327;SDS011;4201;48.754;8.864;2024-03-02T01:22:42;22.30;;;14.00;;
8327;SDS011;4201;48.754;8.864;2024-03-02T01:25:08;21.80;;;12.50;;
8327;SDS011;4201;48.754;8.864;2024-03-02T01:27:35;19.87;;;13.57;;
8327;SDS011;4201;48.754;8.864;2024-03-02T01:30:01;20.70;;;13.20;;
8327;SDS011;4201;48.754;8.864;2024-03-02T01:32:27;24.57;;;15.30;;
8327;SDS011;4201;48.754;8.864;2024-03-02T01:34:54;21.37;;;14.33;;
8327;SDS011;4201;48.754;8.864;2024-03-02T01:37:22;19.87;;;14.00;;
8327;SDS011;4201;48.754;8.864;2024-03-02T01:39:48;20.93;;;15.00;;
8327;SDS011;4201;48.754;8.864;2024-03-02T01:42:15;20.30;;;13.93;;
8327;SDS011;4201;48.754;8.864;2024-03-02T01:44:41;21.77;;;14.00;;
8327;SDS011;4201;48.754;8.864;2024-03-02T01:47:07;22.50;;;15.40;;
8327;SDS011;4201;48.754;8.864;2024-03-02T01:49:34;20.00;;;14.93;;
8327;SDS011;4201;48.754;8.864;2024-03-02T01:52:00;22.13;;;15.47;;
8327;SDS011;4201;48.754;8.864;2024-03-02T01:54:28;21.43;;;14.93;;
8327;SDS011;4201;48.754;8.864;2024-03-02T01:56:54;24.63;;;16.10;;
8327;SDS011;4201;48.754;8.864;2024-03-02T01:59:21;21.20;;;14.60;;
8327;SDS011;4201;48.754;8.864;2024-03-02T02:01:47;21.93;;;14.97;;
8327;SDS011;4201;48.754;8.864;2024-03-02T02:04:13;20.50;;;14.00;;
8327;SDS011;4201;48.754;8.864;2024-03-02T02:06:39;22.63;;;14.50;;
8327;SDS011;4201;48.754;8.864;2024-03-02T02:09:06;23.50;;;16.53;;
8327;SDS011;4201;48.754;8.864;2024-03-02T02:11:34;26.87;;;15.47;;
8327;SDS011;4201;48.754;8.864;2024-03-02T02:14:00;22.73;;;16.03;;
8327;SDS011;4201;48.754;8.864;2024-03-02T02:16:27;25.40;;;15.80;;
8327;SDS011;4201;48.754;8.864;2024-03-02T02:18:53;25.40;;;17.00;;
8327;SDS011;4201;48.754;8.864;2024-03-02T02:21:23;24.80;;;17.63;;
8327;SDS011;4201;48.754;8.864;2024-03-02T02:23:49;23.50;;;16.13;;
8327;SDS011;4201;48.754;8.864;2024-03-02T02:26:16;29.20;;;18.17;;
8327;SDS011;4201;48.754;8.864;2024-03-02T02:28:42;25.93;;;18.50;;
8327;SDS011;4201;48.754;8.864;2024-03-02T02:31:11;27.43;;;19.23;;
8327;SDS011;4201;48.754;8.864;2024-03-02T02:33:38;37.60;;;19.57;;
8327;SDS011;4201;48.754;8.864;2024-03-02T02:36:05;32.07;;;19.37;;
8327;SDS011;4201;48.754;8.864;2024-03-02T02:38:33;24.80;;;16.50;;
8327;SDS011;4201;48.754;8.864;2024-03-02T02:41:01;28.57;;;18.43;;
8327;SDS011;4201;48.754;8.864;2024-03-02T02:43:27;28.30;;;17.87;;
8327;SDS011;4201;48.754;8.864;2024-03-02T02:45:53;33.20;;;18.00;;
8327;SDS011;4201;48.754;8.864;2024-03-02T02:48:19;28.23;;;17.70;;
8327;SDS011;4201;48.754;8.864;2024-03-02T02:50:46;27.53;;;17.47;;
8327;SDS011;4201;48.754;8.864;2024-03-02T02:53:12;30.30;;;18.67;;
8327;SDS011;4201;48.754;8.864;2024-03-02T02:55:40;26.37;;;18.10;;
8327;SDS011;4201;48.754;8.864;2024-03-02T02:58:08;26.43;;;18.00;;
8327;SDS011;4201;48.754;8.864;2024-03-02T03:00:34;26.63;;;18.03;;
8327;SDS011;4201;48.754;8.864;2024-03-02T03:03:01;25.93;;;16.23;;
8327;SDS011;4201;48.754;8.864;2024-03-02T03:05:28;26.90;;;17.50;;
8327;SDS011;4201;48.754;8.864;2024-03-02T03:07:54;27.27;;;18.20;;
8327;SDS011;4201;48.754;8.864;2024-03-02T03:10:20;29.43;;;18.23;;
8327;SDS011;4201;48.754;8.864;2024-03-02T03:12:49;30.93;;;19.03;;
8327;SDS011;4201;48.754;8.864;2024-03-02T03:15:15;26.53;;;17.67;;
8327;SDS011;4201;48.754;8.864;2024-03-02T03:17:42;31.20;;;18.27;;
8327;SDS011;4201;48.754;8.864;2024-03-02T03:20:08;31.50;;;19.17;;
8327;SDS011;4201;48.754;8.864;2024-03-02T03:22:35;28.80;;;17.97;;
8327;SDS011;4201;48.754;8.864;2024-03-02T03:25:02;26.43;;;17.83;;
8327;SDS011;4201;48.754;8.864;2024-03-02T03:27:28;31.43;;;19.00;;
8327;SDS011;4201;48.754;8.864;2024-03-02T03:29:56;30.67;;;19.60;;
8327;SDS011;4201;48.754;8.864;2024-03-02T03:32:22;27.13;;;18.80;;
8327;SDS011;4201;48.754;8.864;2024-03-02T03:34:48;30.03;;;18.23;;
8327;SDS011;4201;48.754;8.864;2024-03-02T03:37:14;29.43;;;19.67;;
8327;SDS011;4201;48.754;8.864;2024-03-02T03:39:41;27.27;;;19.10;;
8327;SDS011;4201;48.754;8.864;2024-03-02T03:42:07;32.10;;;18.50;;
8327;SDS011;4201;48.754;8.864;2024-03-02T03:44:34;29.83;;;18.40;;
8327;SDS011;4201;48.754;8.864;2024-03-02T03:47:02;29.50;;;18.73;;
8327;SDS011;4201;48.754;8.864;2024-03-02T03:49:28;29.90;;;19.67;;
8327;SDS011;4201;48.754;8.864;2024-03-02T03:51:54;26.03;;;17.70;;
8327;SDS011;4201;48.754;8.864;2024-03-02T03:54:20;35.07;;;20.40;;
8327;SDS011;4201;48.754;8.864;2024-03-02T03:56:47;34.70;;;22.20;;
8327;SDS011;4201;48.754;8.864;2024-03-02T03:59:13;33.97;;;20.70;;
8327;SDS011;4201;48.754;8.864;2024-03-02T04:01:39;33.57;;;19.67;;
8327;SDS011;4201;48.754;8.864;2024-03-02T04:04:07;32.00;;;19.27;;
8327;SDS011;4201;48.754;8.864;2024-03-02T04:06:34;28.97;;;19.70;;
8327;SDS011;4201;48.754;8.864;2024-03-02T04:09:00;29.30;;;19.07;;
8327;SDS011;4201;48.754;8.864;2024-03-02T04:11:26;30.67;;;19.73;;
8327;SDS011;4201;48.754;8.864;2024-03-02T04:13:52;27.07;;;18.00;;
8327;SDS011;4201;48.754;8.864;2024-03-02T04:16:19;31.93;;;20.07;;
8327;SDS011;4201;48.754;8.864;2024-03-02T04:18:45;32.60;;;19.87;;
8327;SDS011;4201;48.754;8.864;2024-03-02T04:21:11;34.37;;;20.40;;
8327;SDS011;4201;48.754;8.864;2024-03-02T04:23:38;35.00;;;19.80;;
8327;SDS011;4201;48.754;8.864;2024-03-02T04:26:04;29.40;;;19.13;;
8327;SDS011;4201;48.754;8.864;2024-03-02T04:28:30;32.33;;;20.30;;
8327;SDS011;4201;48.754;8.864;2024-03-02T04:30:57;31.57;;;19.97;;
8327;SDS011;4201;48.754;8.864;2024-03-02T04:33:23;31.33;;;19.07;;
8327;SDS011;4201;48.754;8.864;2024-03-02T04:35:49;34.63;;;19.90;;
8327;SDS011;4201;48.754;8.864;2024-03-02T04:38:17;31.57;;;19.90;;
8327;SDS011;4201;48.754;8.864;2024-03-02T04:40:43;30.33;;;19.20;;
8327;SDS011;4201;48.754;8.864;2024-03-02T04:43:10;30.47;;;19.77;;
8327;SDS011;4201;48.754;8.864;2024-03-02T04:45:40;33.60;;;19.23;;
8327;SDS011;4201;48.754;8.864;2024-03-02T04:48:06;34.37;;;20.10;;
8327;SDS011;4201;48.754;8.864;2024-03-02T04:50:33;35.73;;;21.40;;
8327;SDS011;4201;48.754;8.864;2024-03-02T04:52:59;29.40;;;19.47;;
8327;SDS011;4201;48.754;8.864;2024-03-02T04:55:26;31.87;;;18.90;;
8327;SDS011;4201;48.754;8.864;2024-03-02T04:58:21;32.30;;;19.57;;
8327;SDS011;4201;48.754;8.864;2024-03-02T05:00:47;29.77;;;18.30;;
8327;SDS011;4201;48.754;8.864;2024-03-02T05:03:13;29.37;;;19.57;;
8327;SDS011;4201;48.754;8.864;2024-03-02T05:05:40;37.93;;;18.93;;
8327;SDS011;4201;48.754;8.864;2024-03-02T05:08:06;32.33;;;19.20;;
8327;SDS011;4201;48.754;8.864;2024-03-02T05:10:33;32.87;;;20.37;;
8327;SDS011;4201;48.754;8.864;2024-03-02T05:13:01;31.63;;;19.63;;
8327;SDS011;4201;48.754;8.864;2024-03-02T05:15:27;34.20;;;19.13;;
8327;SDS011;4201;48.754;8.864;2024-03-02T05:17:54;30.23;;;18.40;;
8327;SDS011;4201;48.754;8.864;2024-03-02T05:20:21;32.47;;;19.03;;
8327;SDS011;4201;48.754;8.864;2024-03-02T05:22:48;31.40;;;19.40;;
8327;SDS011;4201;48.754;8.864;2024-03-02T05:25:14;34.60;;;18.77;;
8327;SDS011;4201;48.754;8.864;2024-03-02T05:27:42;30.77;;;19.10;;
8327;SDS011;4201;48.754;8.864;2024-03-02T05:30:09;32.60;;;21.70;;
8327;SDS011;4201;48.754;8.864;2024-03-02T05:32:35;30.77;;;19.80;;
8327;SDS011;4201;48.754;8.864;2024-03-02T05:35:02;31.30;;;18.60;;
8327;SDS011;4201;48.754;8.864;2024-03-02T05:37:30;41.03;;;20.13;;
8327;SDS011;4201;48.754;8.864;2024-03-02T05:39:56;32.93;;;19.50;;
8327;SDS011;4201;48.754;8.864;2024-03-02T05:42:22;31.50;;;19.43;;
8327;SDS011;4201;48.754;8.864;2024-03-02T05:44:50;33.87;;;19.93;;
8327;SDS011;4201;48.754;8.864;2024-03-02T05:47:16;34.63;;;19.80;;
8327;SDS011;4201;48.754;8.864;2024-03-02T05:49:42;33.23;;;18.90;;
8327;SDS011;4201;48.754;8.864;2024-03-02T05:52:09;31.80;;;18.43;;
8327;SDS011;4201;48.754;8.864;2024-03-02T05:54:35;32.60;;;20.73;;
8327;SDS011;4201;48.754;8.864;2024-03-02T05:57:02;31.80;;;20.13;;
8327;SDS011;4201;48.754;8.864;2024-03-02T05:59:42;32.03;;;19.67;;
8327;SDS011;4201;48.754;8.864;2024-03-02T06:02:10;36.70;;;21.43;;
8327;SDS011;4201;48.754;8.864;2024-03-02T06:04:36;34.73;;;19.63;;
8327;SDS011;4201;48.754;8.864;2024-03-02T06:07:02;32.40;;;19.30;;
8327;SDS011;4201;48.754;8.864;2024-03-02T06:09:29;34.03;;;19.77;;
8327;SDS011;4201;48.754;8.864;2024-03-02T06:11:55;31.27;;;20.10;;
8327;SDS011;4201;48.754;8.864;2024-03-02T06:14:21;29.63;;;18.67;;
8327;SDS011;4201;48.754;8.864;2024-03-02T06:16:47;32.00;;;20.20;;
8327;SDS011;4201;48.754;8.864;2024-03-02T06:19:15;35.80;;;20.70;;
8327;SDS011;4201;48.754;8.864;2024-03-02T06:21:41;34.70;;;20.07;;
8327;SDS011;4201;48.754;8.864;2024-03-02T06:24:07;35.80;;;21.40;;
8327;SDS011;4201;48.754;8.864;2024-03-02T06:26:33;31.00;;;19.47;;
8327;SDS011;4201;48.754;8.864;2024-03-02T06:29:00;31.07;;;20.27;;
8327;SDS011;4201;48.754;8.864;2024-03-02T06:31:27;48.43;;;26.33;;
8327;SDS011;4201;48.754;8.864;2024-03-02T06:33:53;53.63;;;28.27;;
8327;SDS011;4201;48.754;8.864;2024-03-02T06:36:21;43.90;;;24.67;;
8327;SDS011;4201;48.754;8.864;2024-03-02T06:38:48;39.27;;;22.27;;
8327;SDS011;4201;48.754;8.864;2024-03-02T06:41:14;47.03;;;25.17;;
8327;SDS011;4201;48.754;8.864;2024-03-02T06:43:40;35.33;;;21.30;;
8327;SDS011;4201;48.754;8.864;2024-03-02T06:46:06;32.97;;;19.20;;
8327;SDS011;4201;48.754;8.864;2024-03-02T06:48:34;32.63;;;20.80;;
8327;SDS011;4201;48.754;8.864;2024-03-02T06:51:00;37.57;;;21.73;;
8327;SDS011;4201;48.754;8.864;2024-03-02T06:53:28;33.43;;;20.60;;
8327;SDS011;4201;48.754;8.864;2024-03-02T06:55:55;37.00;;;22.07;;
8327;SDS011;4201;48.754;8.864;2024-03-02T06:58:21;27.33;;;17.27;;
8327;SDS011;4201;48.754;8.864;2024-03-02T07:00:47;30.37;;;17.37;;
8327;SDS011;4201;48.754;8.864;2024-03-02T07:03:13;30.40;;;18.17;;
8327;SDS011;4201;48.754;8.864;2024-03-02T07:05:40;26.70;;;17.40;;
8327;SDS011;4201;48.754;8.864;2024-03-02T07:08:06;31.77;;;19.67;;
8327;SDS011;4201;48.754;8.864;2024-03-02T07:10:34;29.07;;;20.33;;
8327;SDS011;4201;48.754;8.864;2024-03-02T07:13:00;33.50;;;18.90;;
8327;SDS011;4201;48.754;8.864;2024-03-02T07:15:26;31.43;;;20.50;;
8327;SDS011;4201;48.754;8.864;2024-03-02T07:18:10;30.77;;;20.00;;
8327;SDS011;4201;48.754;8.864;2024-03-02T07:20:36;27.83;;;18.47;;
8327;SDS011;4201;48.754;8.864;2024-03-02T07:23:04;25.40;;;17.30;;
8327;SDS011;4201;48.754;8.864;2024-03-02T07:25:30;24.53;;;17.80;;
8327;SDS011;4201;48.754;8.864;2024-03-02T07:27:58;25.43;;;16.30;;
8327;SDS011;4201;48.754;8.864;2024-03-02T07:30:25;28.07;;;17.90;;
8327;SDS011;4201;48.754;8.864;2024-03-02T07:32:51;25.70;;;17.13;;
8327;SDS011;4201;48.754;8.864;2024-03-02T07:35:18;26.53;;;17.47;;
8327;SDS011;4201;48.754;8.864;2024-03-02T07:37:44;24.70;;;17.10;;
8327;SDS011;4201;48.754;8.864;2024-03-02T07:40:11;26.43;;;17.10;;
8327;SDS011;4201;48.754;8.864;2024-03-02T07:42:37;26.30;;;17.97;;
8327;SDS011;4201;48.754;8.864;2024-03-02T07:45:06;26.07;;;17.43;;
8327;SDS011;4201;48.754;8.864;2024-03-02T07:47:32;28.07;;;17.90;;
8327;SDS011;4201;48.754;8.864;2024-03-02T07:49:59;28.07;;;18.80;;
8327;SDS011;4201;48.754;8.864;2024-03-02T07:52:25;25.83;;;18.20;;
8327;SDS011;4201;48.754;8.864;2024-03-02T07:54:51;28.90;;;17.27;;
8327;SDS011;4201;48.754;8.864;2024-03-02T07:57:17;25.53;;;17.10;;
8327;SDS011;4201;48.754;8.864;2024-03-02T07:59:44;23.73;;;17.13;;
8327;SDS011;4201;48.754;8.864;2024-03-02T08:02:11;25.03;;;17.03;;
8327;SDS011;4201;48.754;8.864;2024-03-02T08:04:38;23.80;;;16.97;;
8327;SDS011;4201;48.754;8.864;2024-03-02T08:07:05;24.67;;;17.40;;
8327;SDS011;4201;48.754;8.864;2024-03-02T08:09:32;25.27;;;17.13;;
8327;SDS011;4201;48.754;8.864;2024-03-02T08:12:01;29.37;;;16.87;;
8327;SDS011;4201;48.754;8.864;2024-03-02T08:14:27;22.30;;;16.03;;
8327;SDS011;4201;48.754;8.864;2024-03-02T08:16:54;25.80;;;17.13;;
8327;SDS011;4201;48.754;8.864;2024-03-02T08:19:23;23.20;;;16.20;;
8327;SDS011;4201;48.754;8.864;2024-03-02T08:21:49;24.23;;;16.70;;
8327;SDS011;4201;48.754;8.864;2024-03-02T08:24:15;30.03;;;17.00;;
8327;SDS011;4201;48.754;8.864;2024-03-02T08:26:42;22.20;;;16.60;;
8327;SDS011;4201;48.754;8.864;2024-03-02T08:29:08;22.30;;;16.37;;
8327;SDS011;4201;48.754;8.864;2024-03-02T08:31:34;23.13;;;16.23;;
8327;SDS011;4201;48.754;8.864;2024-03-02T08:34:01;22.83;;;16.37;;
8327;SDS011;4201;48.754;8.864;2024-03-02T08:36:29;23.40;;;16.97;;
8327;SDS011;4201;48.754;8.864;2024-03-02T08:38:55;18.80;;;14.63;;
8327;SDS011;4201;48.754;8.864;2024-03-02T08:41:21;24.37;;;16.70;;
8327;SDS011;4201;48.754;8.864;2024-03-02T08:43:48;21.67;;;15.73;;
8327;SDS011;4201;48.754;8.864;2024-03-02T08:46:14;21.00;;;15.87;;
8327;SDS011;4201;48.754;8.864;2024-03-02T08:48:41;22.03;;;15.53;;
8327;SDS011;4201;48.754;8.864;2024-03-02T08:51:07;21.90;;;15.43;;
8327;SDS011;4201;48.754;8.864;2024-03-02T08:53:36;24.27;;;15.37;;
8327;SDS011;4201;48.754;8.864;2024-03-02T08:56:03;20.37;;;15.07;;
8327;SDS011;4201;48.754;8.864;2024-03-02T08:58:30;18.87;;;13.43;;
8327;SDS011;4201;48.754;8.864;2024-03-02T09:00:57;19.47;;;13.97;;
8327;SDS011;4201;48.754;8.864;2024-03-02T09:03:23;20.17;;;14.93;;
8327;SDS011;4201;48.754;8.864;2024-03-02T09:05:49;20.83;;;14.10;;
8327;SDS011;4201;48.754;8.864;2024-03-02T09:08:15;17.50;;;13.10;;
8327;SDS011;4201;48.754;8.864;2024-03-02T09:10:43;20.30;;;14.20;;
8327;SDS011;4201;48.754;8.864;2024-03-02T09:13:09;20.10;;;14.93;;
8327;SDS011;4201;48.754;8.864;2024-03-02T09:15:36;23.57;;;14.97;;
8327;SDS011;4201;48.754;8.864;2024-03-02T09:18:04;17.80;;;13.57;;
8327;SDS011;4201;48.754;8.864;2024-03-02T09:20:31;17.10;;;11.90;;
8327;SDS011;4201;48.754;8.864;2024-03-02T09:22:58;19.53;;;13.67;;
8327;SDS011;4201;48.754;8.864;2024-03-02T09:25:24;16.67;;;13.00;;
8327;SDS011;4201;48.754;8.864;2024-03-02T09:27:52;17.30;;;12.97;;
8327;SDS011;4201;48.754;8.864;2024-03-02T09:30:18;23.10;;;12.90;;
8327;SDS011;4201;48.754;8.864;2024-03-02T09:32:44;15.70;;;11.23;;
8327;SDS011;4201;48.754;8.864;2024-03-02T09:35:10;16.53;;;11.67;;
8327;SDS011;4201;48.754;8.864;2024-03-02T09:37:37;15.40;;;10.97;;
8327;SDS011;4201;48.754;8.864;2024-03-02T09:40:04;17.17;;;12.03;;
8327;SDS011;4201;48.754;8.864;2024-03-02T09:42:31;16.73;;;11.53;;
8327;SDS011;4201;48.754;8.864;2024-03-02T09:44:59;19.57;;;11.33;;
8327;SDS011;4201;48.754;8.864;2024-03-02T09:47:25;19.63;;;12.17;;
8327;SDS011;4201;48.754;8.864;2024-03-02T09:49:51;17.20;;;12.40;;
8327;SDS011;4201;48.754;8.864;2024-03-02T09:52:18;14.93;;;10.40;;
8327;SDS011;4201;48.754;8.864;2024-03-02T09:54:46;17.97;;;11.47;;
8327;SDS011;4201;48.754;8.864;2024-03-02T09:57:13;13.23;;;10.17;;
8327;SDS011;4201;48.754;8.864;2024-03-02T09:59:39;22.17;;;9.93;;
8327;SDS011;4201;48.754;8.864;2024-03-02T10:02:07;17.23;;;10.13;;
8327;SDS011;4201;48.754;8.864;2024-03-02T10:04:33;15.03;;;9.73;;
8327;SDS011;4201;48.754;8.864;2024-03-02T10:07:13;17.23;;;9.67;;
8327;SDS011;4201;48.754;8.864;2024-03-02T10:09:40;12.13;;;7.60;;
8327;SDS011;4201;48.754;8.864;2024-03-02T10:12:07;11.33;;;8.00;;
8327;SDS011;4201;48.754;8.864;2024-03-02T10:14:33;10.83;;;8.03;;
8327;SDS011;4201;48.754;8.864;2024-03-02T10:17:02;10.87;;;7.23;;
8327;SDS011;4201;48.754;8.864;2024-03-02T10:19:30;10.70;;;7.97;;
8327;SDS011;4201;48.754;8.864;2024-03-02T10:21:58;9.33;;;7.00;;
8327;SDS011;4201;48.754;8.864;2024-03-02T10:24:24;9.43;;;7.50;;
8327;SDS011;4201;48.754;8.864;2024-03-02T10:26:51;9.87;;;6.67;;
8327;SDS011;4201;48.754;8.864;2024-03-02T10:29:17;12.30;;;7.53;;
8327;SDS011;4201;48.754;8.864;2024-03-02T10:31:44;11.47;;;8.63;;
8327;SDS011;4201;48.754;8.864;2024-03-02T10:34:10;10.57;;;7.57;;
8327;SDS011;4201;48.754;8.864;2024-03-02T10:36:40;8.27;;;6.10;;
8327;SDS011;4201;48.754;8.864;2024-03-02T10:39:07;8.77;;;6.60;;
8327;SDS011;4201;48.754;8.864;2024-03-02T10:41:33;7.63;;;5.50;;
8327;SDS011;4201;48.754;8.864;2024-03-02T10:44:01;8.97;;;5.73;;
8327;SDS011;4201;48.754;8.864;2024-03-02T10:46:29;7.83;;;5.03;;
8327;SDS011;4201;48.754;8.864;2024-03-02T10:48:55;8.57;;;6.20;;
8327;SDS011;4201;48.754;8.864;2024-03-02T10:51:23;7.73;;;5.40;;
8327;SDS011;4201;48.754;8.864;2024-03-02T10:53:51;7.37;;;5.47;;
8327;SDS011;4201;48.754;8.864;2024-03-02T10:56:19;6.00;;;3.97;;
8327;SDS011;4201;48.754;8.864;2024-03-02T10:58:49;7.10;;;4.93;;
8327;SDS011;4201;48.754;8.864;2024-03-02T11:01:16;6.80;;;4.80;;
8327;SDS011;4201;48.754;8.864;2024-03-02T11:03:43;6.47;;;3.80;;
8327;SDS011;4201;48.754;8.864;2024-03-02T11:06:10;4.40;;;2.90;;
8327;SDS011;4201;48.754;8.864;2024-03-02T11:08:37;4.80;;;2.93;;
8327;SDS011;4201;48.754;8.864;2024-03-02T11:11:06;4.63;;;3.23;;
8327;SDS011;4201;48.754;8.864;2024-03-02T11:13:34;4.63;;;2.93;;
8327;SDS011;4201;48.754;8.864;2024-03-02T11:16:02;5.43;;;2.40;;
8327;SDS011;4201;48.754;8.864;2024-03-02T11:18:29;4.30;;;2.43;;
8327;SDS011;4201;48.754;8.864;2024-03-02T11:20:56;4.50;;;2.20;;
8327;SDS011;4201;48.754;8.864;2024-03-02T11:23:31;5.37;;;3.17;;
8327;SDS011;4201;48.754;8.864;2024-03-02T11:26:11;4.27;;;1.70;;
8327;SDS011;4201;48.754;8.864;2024-03-02T11:28:43;3.90;;;2.27;;
8327;SDS011;4201;48.754;8.864;2024-03-02T11:31:09;3.93;;;2.00;;
8327;SDS011;4201;48.754;8.864;2024-03-02T11:33:35;2.80;;;1.97;;
8327;SDS011;4201;48.754;8.864;2024-03-02T11:36:02;3.70;;;2.20;;
8327;SDS011;4201;48.754;8.864;2024-03-02T11:38:29;4.53;;;2.90;;
8327;SDS011;4201;48.754;8.864;2024-03-02T11:40:56;4.40;;;2.10;;
8327;SDS011;4201;48.754;8.864;2024-03-02T11:43:23;3.37;;;1.60;;
8327;SDS011;4201;48.754;8.864;2024-03-02T11:45:56;4.13;;;2.13;;
8327;SDS011;4201;48.754;8.864;2024-03-02T11:48:22;3.43;;;2.63;;
8327;SDS011;4201;48.754;8.864;2024-03-02T11:50:50;3.50;;;1.70;;
8327;SDS011;4201;48.754;8.864;2024-03-02T11:53:17;4.00;;;1.83;;
8327;SDS011;4201;48.754;8.864;2024-03-02T11:55:43;4.03;;;2.13;;
8327;SDS011;4201;48.754;8.864;2024-03-02T11:58:11;3.80;;;2.00;;
8327;SDS011;4201;48.754;8.864;2024-03-02T12:00:39;3.23;;;2.07;;
8327;SDS011;4201;48.754;8.864;2024-03-02T12:03:05;3.47;;;2.23;;
8327;SDS011;4201;48.754;8.864;2024-03-02T12:05:33;3.67;;;2.00;;
8327;SDS011;4201;48.754;8.864;2024-03-02T12:08:00;2.47;;;1.63;;
8327;SDS011;4201;48.754;8.864;2024-03-02T12:10:27;3.20;;;1.83;;
8327;SDS011;4201;48.754;8.864;2024-03-02T12:12:56;3.20;;;1.70;;
8327;SDS011;4201;48.754;8.864;2024-03-02T12:15:23;2.77;;;1.40;;
8327;SDS011;4201;48.754;8.864;2024-03-02T12:17:53;3.10;;;1.57;;
8327;SDS011;4201;48.754;8.864;2024-03-02T12:20:20;6.60;;;1.40;;
8327;SDS011;4201;48.754;8.864;2024-03-02T12:22:46;3.80;;;1.90;;
8327;SDS011;4201;48.754;8.864;2024-03-02T12:25:12;2.90;;;1.70;;
8327;SDS011;4201;48.754;8.864;2024-03-02T12:27:39;2.20;;;1.23;;
8327;SDS011;4201;48.754;8.864;2024-03-02T12:30:06;1.80;;;0.80;;
8327;SDS011;4201;48.754;8.864;2024-03-02T12:32:35;3.40;;;1.37;;
8327;SDS011;4201;48.754;8.864;2024-03-02T12:35:03;2.30;;;1.30;;
8327;SDS011;4201;48.754;8.864;2024-03-02T12:37:30;2.70;;;1.50;;
8327;SDS011;4201;48.754;8.864;2024-03-02T12:39:56;2.97;;;1.20;;
8327;SDS011;4201;48.754;8.864;2024-03-02T12:42:23;2.27;;;1.10;;
8327;SDS011;4201;48.754;8.864;2024-03-02T12:44:51;2.83;;;1.40;;
8327;SDS011;4201;48.754;8.864;2024-03-02T12:47:19;3.83;;;1.47;;
8327;SDS011;4201;48.754;8.864;2024-03-02T12:49:45;2.90;;;1.40;;
8327;SDS011;4201;48.754;8.864;2024-03-02T12:52:13;3.10;;;1.00;;
8327;SDS011;4201;48.754;8.864;2024-03-02T12:54:39;2.87;;;1.40;;
8327;SDS011;4201;48.754;8.864;2024-03-02T12:57:06;2.47;;;1.33;;
8327;SDS011;4201;48.754;8.864;2024-03-02T12:59:32;2.40;;;1.30;;
8327;SDS011;4201;48.754;8.864;2024-03-02T13:01:58;4.13;;;1.37;;
8327;SDS011;4201;48.754;8.864;2024-03-02T13:04:26;5.10;;;1.27;;
8327;SDS011;4201;48.754;8.864;2024-03-02T13:06:53;2.33;;;1.20;;
8327;SDS011;4201;48.754;8.864;2024-03-02T13:09:22;2.20;;;1.20;;
8327;SDS011;4201;48.754;8.864;2024-03-02T13:11:49;6.10;;;1.87;;
8327;SDS011;4201;48.754;8.864;2024-03-02T13:14:15;4.27;;;1.70;;
8327;SDS011;4201;48.754;8.864;2024-03-02T13:16:41;3.47;;;1.97;;
8327;SDS011;4201;48.754;8.864;2024-03-02T13:19:08;4.00;;;2.30;;
8327;SDS011;4201;48.754;8.864;2024-03-02T13:21:34;4.80;;;2.90;;
8327;SDS011;4201;48.754;8.864;2024-03-02T13:24:00;3.47;;;1.93;;
8327;SDS011;4201;48.754;8.864;2024-03-02T13:26:29;3.13;;;1.83;;
8327;SDS011;4201;48.754;8.864;2024-03-02T13:28:55;3.93;;;2.00;;
8327;SDS011;4201;48.754;8.864;2024-03-02T13:31:22;4.20;;;2.30;;
8327;SDS011;4201;48.754;8.864;2024-03-02T13:33:48;4.43;;;2.60;;
8327;SDS011;4201;48.754;8.864;2024-03-02T13:36:14;4.47;;;2.50;;
8327;SDS011;4201;48.754;8.864;2024-03-02T13:38:40;4.67;;;2.60;;
8327;SDS011;4201;48.754;8.864;2024-03-02T13:41:07;5.03;;;3.37;;
8327;SDS011;4201;48.754;8.864;2024-03-02T13:43:35;4.70;;;2.67;;
8327;SDS011;4201;48.754;8.864;2024-03-02T13:46:03;3.20;;;2.03;;
8327;SDS011;4201;48.754;8.864;2024-03-02T13:48:29;3.03;;;2.10;;
8327;SDS011;4201;48.754;8.864;2024-03-02T13:50:55;2.93;;;1.83;;
8327;SDS011;4201;48.754;8.864;2024-03-02T13:53:22;2.67;;;1.87;;
8327;SDS011;4201;48.754;8.864;2024-03-02T13:55:48;3.80;;;2.10;;
8327;SDS011;4201;48.754;8.864;2024-03-02T13:58:14;2.80;;;1.87;;
8327;SDS011;4201;48.754;8.864;2024-03-02T14:00:42;4.90;;;2.63;;
8327;SDS011;4201;48.754;8.864;2024-03-02T14:03:10;3.53;;;2.07;;
8327;SDS011;4201;48.754;8.864;2024-03-02T14:05:37;3.63;;;2.17;;
8327;SDS011;4201;48.754;8.864;2024-03-02T14:08:03;3.60;;;2.07;;
8327;SDS011;4201;48.754;8.864;2024-03-02T14:10:30;3.10;;;1.80;;
8327;SDS011;4201;48.754;8.864;2024-03-02T14:12:56;2.83;;;1.57;;
8327;SDS011;4201;48.754;8.864;2024-03-02T14:15:22;3.37;;;2.30;;
8327;SDS011;4201;48.754;8.864;2024-03-02T14:17:50;5.23;;;2.73;;
8327;SDS011;4201;48.754;8.864;2024-03-02T14:20:16;9.37;;;2.10;;
8327;SDS011;4201;48.754;8.864;2024-03-02T14:22:46;3.30;;;2.13;;
8327;SDS011;4201;48.754;8.864;2024-03-02T14:25:13;3.50;;;2.53;;
8327;SDS011;4201;48.754;8.864;2024-03-02T14:27:39;3.00;;;1.77;;
8327;SDS011;4201;48.754;8.864;2024-03-02T14:30:06;5.07;;;2.93;;
8327;SDS011;4201;48.754;8.864;2024-03-02T14:32:32;6.90;;;2.40;;
8327;SDS011;4201;48.754;8.864;2024-03-02T14:35:00;4.03;;;2.60;;
8327;SDS011;4201;48.754;8.864;2024-03-02T14:37:27;3.93;;;2.30;;
8327;SDS011;4201;48.754;8.864;2024-03-02T14:39:53;3.63;;;2.10;;
8327;SDS011;4201;48.754;8.864;2024-03-02T14:42:20;3.30;;;2.00;;
8327;SDS011;4201;48.754;8.864;2024-03-02T14:44:47;3.53;;;1.93;;
8327;SDS011;4201;48.754;8.864;2024-03-02T14:47:13;3.40;;;2.20;;
8327;SDS011;4201;48.754;8.864;2024-03-02T14:49:39;2.77;;;1.43;;
8327;SDS011;4201;48.754;8.864;2024-03-02T14:52:08;4.10;;;2.07;;
8327;SDS011;4201;48.754;8.864;2024-03-02T14:54:34;3.23;;;1.70;;